sensor_id;sensor_type;location;lat;lon;timestamp;P1;durP1;ratioP1;P2;durP2;ratioP2
54627;SDS011;40525;55.926;21.066;2024-03-02T00:00:34;12.30;;;6.80;;
54627;SDS011;40525;55.926;21.066;2024-03-02T00:03:01;15.70;;;7.10;;
54627;SDS011;40525;55.926;21.066;2024-03-02T00:05:28;13.80;;;6.90;;
54627;SDS011;40525;55.926;21.066;2024-03-02T00:07:56;14.20;;;6.70;;
54627;SDS011;40525;55.926;21.066;2024-03-02T00:10:29;13.40;;;6.00;;
54627;SDS011;40525;55.926;21.066;2024-03-02T00:13:07;14.10;;;7.30;;
54627;SDS011;40525;55.926;21.066;2024-03-02T00:15:48;11.90;;;6.50;;
54627;SDS011;40525;55.926;21.066;2024-03-02T00:18:40;11.70;;;7.10;;
54627;SDS011;40525;55.926;21.066;2024-03-02T00:21:06;14.80;;;6.70;;
54627;SDS011;40525;55.926;21.066;2024-03-02T00:23:37;16.80;;;6.70;;
54627;SDS011;40525;55.926;21.066;2024-03-02T00:26:05;12.20;;;6.20;;
54627;SDS011;40525;55.926;21.066;2024-03-02T00:31:03;11.90;;;6.60;;
54627;SDS011;40525;55.926;21.066;2024-03-02T00:33:40;11.50;;;6.40;;
54627;SDS011;40525;55.926;21.066;2024-03-02T00:36:16;13.70;;;6.00;;
54627;SDS011;40525;55.926;21.066;2024-03-02T00:38:49;10.50;;;6.10;;
54627;SDS011;40525;55.926;21.066;2024-03-02T00:41:22;10.30;;;5.70;;
54627;SDS011;40525;55.926;21.066;2024-03-02T00:44:00;14.90;;;6.80;;
54627;SDS011;40525;55.926;21.066;2024-03-02T00:46:33;11.90;;;5.40;;
54627;SDS011;40525;55.926;21.066;2024-03-02T00:49:04;12.80;;;6.80;;
54627;SDS011;40525;55.926;21.066;2024-03-02T00:51:33;14.10;;;6.40;;
54627;SDS011;40525;55.926;21.066;2024-03-02T00:54:03;13.10;;;6.30;;
54627;SDS011;40525;55.926;21.066;2024-03-02T00:56:32;13.00;;;6.80;;
54627;SDS011;40525;55.926;21.066;2024-03-02T00:58:59;12.20;;;6.60;;
54627;SDS011;40525;55.926;21.066;2024-03-02T01:01:26;15.20;;;6.80;;
54627;SDS011;40525;55.926;21.066;2024-03-02T01:03:53;11.20;;;6.30;;
54627;SDS011;40525;55.926;21.066;2024-03-02T01:06:20;14.20;;;6.10;;
54627;SDS011;40525;55.926;21.066;2024-03-02T01:08:49;9.30;;;5.70;;
54627;SDS011;40525;55.926;21.066;2024-03-02T01:11:19;12.90;;;6.70;;
54627;SDS011;40525;55.926;21.066;2024-03-02T01:13:49;12.10;;;5.80;;
54627;SDS011;40525;55.926;21.066;2024-03-02T01:16:17;11.20;;;6.00;;
54627;SDS011;40525;55.926;21.066;2024-03-02T01:18:44;10.60;;;6.20;;
54627;SDS011;40525;55.926;21.066;2024-03-02T01:21:11;14.40;;;6.10;;
54627;SDS011;40525;55.926;21.066;2024-03-02T01:23:38;13.50;;;6.40;;
54627;SDS011;40525;55.926;21.066;2024-03-02T01:26:05;14.60;;;6.50;;
54627;SDS011;40525;55.926;21.066;2024-03-02T01:28:33;11.00;;;5.50;;
54627;SDS011;40525;55.926;21.066;2024-03-02T01:31:00;11.60;;;5.90;;
54627;SDS011;40525;55.926;21.066;2024-03-02T01:33:28;10.20;;;5.30;;
54627;SDS011;40525;55.926;21.066;2024-03-02T01:35:56;10.80;;;6.10;;
54627;SDS011;40525;55.926;21.066;2024-03-02T01:38:23;11.90;;;6.10;;
54627;SDS011;40525;55.926;21.066;2024-03-02T01:40:50;11.00;;;6.10;;
54627;SDS011;40525;55.926;21.066;2024-03-02T01:43:18;13.00;;;6.20;;
54627;SDS011;40525;55.926;21.066;2024-03-02T01:45:46;10.70;;;5.90;;
54627;SDS011;40525;55.926;21.066;2024-03-02T01:48:15;11.90;;;6.00;;
54627;SDS011;40525;55.926;21.066;2024-03-02T01:50:42;10.90;;;5.30;;
54627;SDS011;40525;55.926;21.066;2024-03-02T01:53:09;9.00;;;5.60;;
54627;SDS011;40525;55.926;21.066;2024-03-02T01:55:36;11.60;;;5.60;;
54627;SDS011;40525;55.926;21.066;2024-03-02T01:58:03;13.60;;;6.30;;
54627;SDS011;40525;55.926;21.066;2024-03-02T02:00:31;15.50;;;6.90;;
54627;SDS011;40525;55.926;21.066;2024-03-02T02:02:59;13.00;;;6.90;;
54627;SDS011;40525;55.926;21.066;2024-03-02T02:05:26;11.00;;;5.80;;
54627;SDS011;40525;55.926;21.066;2024-03-02T02:07:53;13.20;;;6.90;;
54627;SDS011;40525;55.926;21.066;2024-03-02T02:10:20;11.60;;;6.60;;
54627;SDS011;40525;55.926;21.066;2024-03-02T02:12:47;11.40;;;6.20;;
54627;SDS011;40525;55.926;21.066;2024-03-02T02:15:30;13.20;;;6.30;;
54627;SDS011;40525;55.926;21.066;2024-03-02T02:17:58;12.50;;;6.40;;
54627;SDS011;40525;55.926;21.066;2024-03-02T02:20:26;11.80;;;5.70;;
54627;SDS011;40525;55.926;21.066;2024-03-02T02:25:23;10.60;;;5.70;;
54627;SDS011;40525;55.926;21.066;2024-03-02T02:27:50;13.10;;;6.30;;
54627;SDS011;40525;55.926;21.066;2024-03-02T02:30:27;10.90;;;6.50;;
54627;SDS011;40525;55.926;21.066;2024-03-02T02:32:57;15.20;;;8.20;;
54627;SDS011;40525;55.926;21.066;2024-03-02T02:35:25;14.00;;;7.00;;
54627;SDS011;40525;55.926;21.066;2024-03-02T02:37:53;11.50;;;6.50;;
54627;SDS011;40525;55.926;21.066;2024-03-02T02:40:22;10.70;;;6.00;;
54627;SDS011;40525;55.926;21.066;2024-03-02T02:42:49;12.70;;;6.30;;
54627;SDS011;40525;55.926;21.066;2024-03-02T02:45:20;13.20;;;6.30;;
54627;SDS011;40525;55.926;21.066;2024-03-02T02:47:47;10.10;;;6.10;;
54627;SDS011;40525;55.926;21.066;2024-03-02T02:50:15;12.40;;;5.90;;
54627;SDS011;40525;55.926;21.066;2024-03-02T02:52:42;11.20;;;6.10;;
54627;SDS011;40525;55.926;21.066;2024-03-02T02:55:10;14.40;;;6.80;;
54627;SDS011;40525;55.926;21.066;2024-03-02T02:57:39;13.10;;;6.80;;
54627;SDS011;40525;55.926;21.066;2024-03-02T03:00:10;12.60;;;6.70;;
54627;SDS011;40525;55.926;21.066;2024-03-02T03:02:45;12.60;;;6.20;;
54627;SDS011;40525;55.926;21.066;2024-03-02T03:05:15;11.70;;;6.70;;
54627;SDS011;40525;55.926;21.066;2024-03-02T03:07:43;11.40;;;5.60;;
54627;SDS011;40525;55.926;21.066;2024-03-02T03:10:11;10.60;;;5.90;;
54627;SDS011;40525;55.926;21.066;2024-03-02T03:12:38;14.10;;;6.30;;
54627;SDS011;40525;55.926;21.066;2024-03-02T03:15:08;11.60;;;6.50;;
54627;SDS011;40525;55.926;21.066;2024-03-02T03:17:36;12.10;;;6.10;;
54627;SDS011;40525;55.926;21.066;2024-03-02T03:20:04;13.70;;;6.20;;
54627;SDS011;40525;55.926;21.066;2024-03-02T03:22:32;11.80;;;6.90;;
54627;SDS011;40525;55.926;21.066;2024-03-02T03:24:59;10.30;;;6.40;;
54627;SDS011;40525;55.926;21.066;2024-03-02T03:27:27;12.60;;;6.30;;
54627;SDS011;40525;55.926;21.066;2024-03-02T03:29:54;13.50;;;6.10;;
54627;SDS011;40525;55.926;21.066;2024-03-02T03:32:21;10.90;;;5.60;;
54627;SDS011;40525;55.926;21.066;2024-03-02T03:34:48;14.60;;;6.50;;
54627;SDS011;40525;55.926;21.066;2024-03-02T03:37:15;10.20;;;5.80;;
54627;SDS011;40525;55.926;21.066;2024-03-02T03:39:43;9.60;;;5.90;;
54627;SDS011;40525;55.926;21.066;2024-03-02T03:42:10;14.00;;;6.80;;
54627;SDS011;40525;55.926;21.066;2024-03-02T03:44:37;10.90;;;6.30;;
54627;SDS011;40525;55.926;21.066;2024-03-02T03:47:05;12.90;;;6.70;;
54627;SDS011;40525;55.926;21.066;2024-03-02T03:49:33;14.00;;;6.60;;
54627;SDS011;40525;55.926;21.066;2024-03-02T03:51:59;11.50;;;6.10;;
54627;SDS011;40525;55.926;21.066;2024-03-02T03:54:27;13.40;;;6.60;;
54627;SDS011;40525;55.926;21.066;2024-03-02T03:56:53;14.70;;;7.00;;
54627;SDS011;40525;55.926;21.066;2024-03-02T03:59:20;10.80;;;5.40;;
54627;SDS011;40525;55.926;21.066;2024-03-02T04:01:47;11.20;;;6.20;;
54627;SDS011;40525;55.926;21.066;2024-03-02T04:04:14;11.20;;;6.00;;
54627;SDS011;40525;55.926;21.066;2024-03-02T04:06:41;12.10;;;6.00;;
54627;SDS011;40525;55.926;21.066;2024-03-02T04:09:08;12.90;;;6.10;;
54627;SDS011;40525;55.926;21.066;2024-03-02T04:11:35;11.30;;;6.70;;
54627;SDS011;40525;55.926;21.066;2024-03-02T04:14:02;14.50;;;7.10;;
54627;SDS011;40525;55.926;21.066;2024-03-02T04:16:30;13.70;;;7.40;;
54627;SDS011;40525;55.926;21.066;2024-03-02T04:18:57;11.50;;;7.30;;
54627;SDS011;40525;55.926;21.066;2024-03-02T04:21:24;14.20;;;6.90;;
54627;SDS011;40525;55.926;21.066;2024-03-02T04:23:51;11.80;;;6.50;;
54627;SDS011;40525;55.926;21.066;2024-03-02T04:26:18;10.80;;;6.40;;
54627;SDS011;40525;55.926;21.066;2024-03-02T04:28:48;11.30;;;6.90;;
54627;SDS011;40525;55.926;21.066;2024-03-02T04:31:16;12.10;;;6.50;;
54627;SDS011;40525;55.926;21.066;2024-03-02T04:33:43;12.30;;;6.50;;
54627;SDS011;40525;55.926;21.066;2024-03-02T04:36:11;11.90;;;6.40;;
54627;SDS011;40525;55.926;21.066;2024-03-02T04:38:39;10.80;;;6.20;;
54627;SDS011;40525;55.926;21.066;2024-03-02T04:41:06;11.60;;;6.70;;
54627;SDS011;40525;55.926;21.066;2024-03-02T04:43:33;9.60;;;5.90;;
54627;SDS011;40525;55.926;21.066;2024-03-02T04:46:01;13.00;;;6.70;;
54627;SDS011;40525;55.926;21.066;2024-03-02T04:48:28;12.60;;;6.70;;
54627;SDS011;40525;55.926;21.066;2024-03-02T04:50:55;12.80;;;7.30;;
54627;SDS011;40525;55.926;21.066;2024-03-02T04:53:22;13.00;;;7.10;;
54627;SDS011;40525;55.926;21.066;2024-03-02T04:55:49;12.90;;;7.10;;
54627;SDS011;40525;55.926;21.066;2024-03-02T05:01:13;11.30;;;6.70;;
54627;SDS011;40525;55.926;21.066;2024-03-02T05:03:40;13.30;;;7.30;;
54627;SDS011;40525;55.926;21.066;2024-03-02T05:06:08;15.20;;;7.60;;
54627;SDS011;40525;55.926;21.066;2024-03-02T05:08:35;14.80;;;7.70;;
54627;SDS011;40525;55.926;21.066;2024-03-02T05:11:02;13.80;;;7.60;;
54627;SDS011;40525;55.926;21.066;2024-03-02T05:13:48;13.30;;;7.20;;
54627;SDS011;40525;55.926;21.066;2024-03-02T05:16:15;17.10;;;8.10;;
54627;SDS011;40525;55.926;21.066;2024-03-02T05:18:42;16.50;;;7.60;;
54627;SDS011;40525;55.926;21.066;2024-03-02T05:21:09;16.20;;;7.90;;
54627;SDS011;40525;55.926;21.066;2024-03-02T05:23:38;10.50;;;6.50;;
54627;SDS011;40525;55.926;21.066;2024-03-02T05:26:05;15.30;;;7.60;;
54627;SDS011;40525;55.926;21.066;2024-03-02T05:28:32;12.70;;;7.10;;
54627;SDS011;40525;55.926;21.066;2024-03-02T05:30:59;13.90;;;7.00;;
54627;SDS011;40525;55.926;21.066;2024-03-02T05:33:27;13.10;;;7.40;;
54627;SDS011;40525;55.926;21.066;2024-03-02T05:35:55;14.10;;;7.60;;
54627;SDS011;40525;55.926;21.066;2024-03-02T05:38:22;13.70;;;7.90;;
54627;SDS011;40525;55.926;21.066;2024-03-02T05:40:49;16.90;;;7.90;;
54627;SDS011;40525;55.926;21.066;2024-03-02T05:43:16;15.40;;;7.70;;
54627;SDS011;40525;55.926;21.066;2024-03-02T05:45:43;15.80;;;8.30;;
54627;SDS011;40525;55.926;21.066;2024-03-02T05:48:10;13.30;;;6.70;;
54627;SDS011;40525;55.926;21.066;2024-03-02T05:50:37;12.30;;;6.90;;
54627;SDS011;40525;55.926;21.066;2024-03-02T05:53:04;14.30;;;7.70;;
54627;SDS011;40525;55.926;21.066;2024-03-02T05:55:31;14.80;;;7.20;;
54627;SDS011;40525;55.926;21.066;2024-03-02T05:57:58;14.00;;;7.90;;
54627;SDS011;40525;55.926;21.066;2024-03-02T06:00:44;12.50;;;7.00;;
54627;SDS011;40525;55.926;21.066;2024-03-02T06:03:11;24.00;;;8.00;;
54627;SDS011;40525;55.926;21.066;2024-03-02T06:05:38;14.80;;;7.50;;
54627;SDS011;40525;55.926;21.066;2024-03-02T06:08:05;12.70;;;6.40;;
54627;SDS011;40525;55.926;21.066;2024-03-02T06:10:32;17.50;;;6.40;;
54627;SDS011;40525;55.926;21.066;2024-03-02T06:12:59;15.90;;;7.40;;
54627;SDS011;40525;55.926;21.066;2024-03-02T06:15:27;18.20;;;7.90;;
54627;SDS011;40525;55.926;21.066;2024-03-02T06:17:54;14.40;;;8.00;;
54627;SDS011;40525;55.926;21.066;2024-03-02T06:20:20;15.50;;;6.90;;
54627;SDS011;40525;55.926;21.066;2024-03-02T06:22:48;17.60;;;7.60;;
54627;SDS011;40525;55.926;21.066;2024-03-02T06:25:15;16.70;;;7.50;;
54627;SDS011;40525;55.926;21.066;2024-03-02T06:27:41;17.40;;;7.00;;
54627;SDS011;40525;55.926;21.066;2024-03-02T06:30:09;13.90;;;7.20;;
54627;SDS011;40525;55.926;21.066;2024-03-02T06:32:36;13.30;;;7.30;;
54627;SDS011;40525;55.926;21.066;2024-03-02T06:35:04;11.50;;;6.80;;
54627;SDS011;40525;55.926;21.066;2024-03-02T06:37:32;18.40;;;8.40;;
54627;SDS011;40525;55.926;21.066;2024-03-02T06:39:59;14.40;;;8.00;;
54627;SDS011;40525;55.926;21.066;2024-03-02T06:42:26;14.40;;;8.00;;
54627;SDS011;40525;55.926;21.066;2024-03-02T06:44:53;12.40;;;7.30;;
54627;SDS011;40525;55.926;21.066;2024-03-02T06:47:20;13.90;;;7.30;;
54627;SDS011;40525;55.926;21.066;2024-03-02T06:49:47;16.00;;;8.20;;
54627;SDS011;40525;55.926;21.066;2024-03-02T06:52:14;15.20;;;8.30;;
54627;SDS011;40525;55.926;21.066;2024-03-02T06:54:41;17.00;;;9.00;;
54627;SDS011;40525;55.926;21.066;2024-03-02T06:57:08;18.30;;;8.40;;
54627;SDS011;40525;55.926;21.066;2024-03-02T06:59:35;17.00;;;9.10;;
54627;SDS011;40525;55.926;21.066;2024-03-02T07:02:02;15.80;;;8.80;;
54627;SDS011;40525;55.926;21.066;2024-03-02T07:04:29;17.50;;;7.90;;
54627;SDS011;40525;55.926;21.066;2024-03-02T07:06:56;14.50;;;7.60;;
54627;SDS011;40525;55.926;21.066;2024-03-02T07:09:23;17.00;;;8.60;;
54627;SDS011;40525;55.926;21.066;2024-03-02T07:11:50;15.70;;;8.30;;
54627;SDS011;40525;55.926;21.066;2024-03-02T07:14:18;16.30;;;8.40;;
54627;SDS011;40525;55.926;21.066;2024-03-02T07:16:44;17.50;;;9.00;;
54627;SDS011;40525;55.926;21.066;2024-03-02T07:19:11;22.60;;;8.90;;
54627;SDS011;40525;55.926;21.066;2024-03-02T07:21:39;15.60;;;8.20;;
54627;SDS011;40525;55.926;21.066;2024-03-02T07:24:06;14.50;;;8.00;;
54627;SDS011;40525;55.926;21.066;2024-03-02T07:26:35;13.00;;;7.00;;
54627;SDS011;40525;55.926;21.066;2024-03-02T07:29:06;18.50;;;8.90;;
54627;SDS011;40525;55.926;21.066;2024-03-02T07:31:32;12.90;;;7.20;;
54627;SDS011;40525;55.926;21.066;2024-03-02T07:33:59;12.50;;;7.50;;
54627;SDS011;40525;55.926;21.066;2024-03-02T07:36:26;17.20;;;8.50;;
54627;SDS011;40525;55.926;21.066;2024-03-02T07:38:53;17.10;;;8.10;;
54627;SDS011;40525;55.926;21.066;2024-03-02T07:41:21;16.60;;;9.10;;
54627;SDS011;40525;55.926;21.066;2024-03-02T07:43:48;13.50;;;7.40;;
54627;SDS011;40525;55.926;21.066;2024-03-02T07:46:15;15.90;;;7.80;;
54627;SDS011;40525;55.926;21.066;2024-03-02T07:48:42;15.90;;;7.20;;
54627;SDS011;40525;55.926;21.066;2024-03-02T07:51:09;18.10;;;8.80;;
54627;SDS011;40525;55.926;21.066;2024-03-02T07:53:36;18.40;;;8.50;;
54627;SDS011;40525;55.926;21.066;2024-03-02T07:56:03;19.80;;;8.60;;
54627;SDS011;40525;55.926;21.066;2024-03-02T07:58:30;16.70;;;8.30;;
54627;SDS011;40525;55.926;21.066;2024-03-02T08:00:57;16.90;;;8.60;;
54627;SDS011;40525;55.926;21.066;2024-03-02T08:03:28;18.30;;;9.10;;
54627;SDS011;40525;55.926;21.066;2024-03-02T08:05:55;13.20;;;7.70;;
54627;SDS011;40525;55.926;21.066;2024-03-02T08:08:22;16.60;;;8.20;;
54627;SDS011;40525;55.926;21.066;2024-03-02T08:10:49;18.40;;;8.40;;
54627;SDS011;40525;55.926;21.066;2024-03-02T08:13:16;21.40;;;9.50;;
54627;SDS011;40525;55.926;21.066;2024-03-02T08:15:43;17.30;;;8.60;;
54627;SDS011;40525;55.926;21.066;2024-03-02T08:18:10;15.90;;;8.10;;
54627;SDS011;40525;55.926;21.066;2024-03-02T08:20:37;20.30;;;8.50;;
54627;SDS011;40525;55.926;21.066;2024-03-02T08:23:05;18.20;;;8.80;;
54627;SDS011;40525;55.926;21.066;2024-03-02T08:25:32;17.00;;;9.00;;
54627;SDS011;40525;55.926;21.066;2024-03-02T08:27:59;18.90;;;9.00;;
54627;SDS011;40525;55.926;21.066;2024-03-02T08:30:26;18.30;;;10.10;;
54627;SDS011;40525;55.926;21.066;2024-03-02T08:32:53;20.10;;;9.90;;
54627;SDS011;40525;55.926;21.066;2024-03-02T08:35:20;21.80;;;9.60;;
54627;SDS011;40525;55.926;21.066;2024-03-02T08:37:49;16.20;;;8.40;;
54627;SDS011;40525;55.926;21.066;2024-03-02T08:40:16;18.50;;;9.90;;
54627;SDS011;40525;55.926;21.066;2024-03-02T08:42:45;15.00;;;9.40;;
54627;SDS011;40525;55.926;21.066;2024-03-02T08:45:12;17.40;;;8.10;;
54627;SDS011;40525;55.926;21.066;2024-03-02T08:47:40;22.40;;;9.80;;
54627;SDS011;40525;55.926;21.066;2024-03-02T08:50:07;18.90;;;8.80;;
54627;SDS011;40525;55.926;21.066;2024-03-02T08:52:35;18.50;;;9.40;;
54627;SDS011;40525;55.926;21.066;2024-03-02T08:55:02;24.00;;;9.80;;
54627;SDS011;40525;55.926;21.066;2024-03-02T08:57:30;17.50;;;10.00;;
54627;SDS011;40525;55.926;21.066;2024-03-02T08:59:58;18.30;;;9.10;;
54627;SDS011;40525;55.926;21.066;2024-03-02T09:02:25;19.40;;;9.70;;
54627;SDS011;40525;55.926;21.066;2024-03-02T09:04:53;17.40;;;8.70;;
54627;SDS011;40525;55.926;21.066;2024-03-02T09:07:20;15.50;;;8.10;;
54627;SDS011;40525;55.926;21.066;2024-03-02T09:09:47;17.90;;;9.70;;
54627;SDS011;40525;55.926;21.066;2024-03-02T09:12:14;19.60;;;9.40;;
54627;SDS011;40525;55.926;21.066;2024-03-02T09:14:41;18.20;;;9.50;;
54627;SDS011;40525;55.926;21.066;2024-03-02T09:17:08;20.10;;;10.20;;
54627;SDS011;40525;55.926;21.066;2024-03-02T09:19:37;17.50;;;9.20;;
54627;SDS011;40525;55.926;21.066;2024-03-02T09:22:05;22.40;;;10.40;;
54627;SDS011;40525;55.926;21.066;2024-03-02T09:24:32;21.80;;;10.50;;
54627;SDS011;40525;55.926;21.066;2024-03-02T09:27:02;19.00;;;9.30;;
54627;SDS011;40525;55.926;21.066;2024-03-02T09:29:29;21.00;;;9.00;;
54627;SDS011;40525;55.926;21.066;2024-03-02T09:31:56;17.60;;;10.00;;
54627;SDS011;40525;55.926;21.066;2024-03-02T09:34:23;22.50;;;10.70;;
54627;SDS011;40525;55.926;21.066;2024-03-02T09:36:51;16.40;;;9.40;;
54627;SDS011;40525;55.926;21.066;2024-03-02T09:39:18;22.30;;;10.40;;
54627;SDS011;40525;55.926;21.066;2024-03-02T09:41:45;19.20;;;10.50;;
54627;SDS011;40525;55.926;21.066;2024-03-02T09:44:14;19.10;;;10.50;;
54627;SDS011;40525;55.926;21.066;2024-03-02T09:46:41;20.80;;;9.90;;
54627;SDS011;40525;55.926;21.066;2024-03-02T09:49:10;19.30;;;10.20;;
54627;SDS011;40525;55.926;21.066;2024-03-02T09:51:38;19.90;;;10.10;;
54627;SDS011;40525;55.926;21.066;2024-03-02T09:54:07;21.70;;;10.90;;
54627;SDS011;40525;55.926;21.066;2024-03-02T09:56:47;22.70;;;10.00;;
54627;SDS011;40525;55.926;21.066;2024-03-02T09:59:14;24.80;;;9.90;;
54627;SDS011;40525;55.926;21.066;2024-03-02T10:01:59;16.00;;;8.10;;
54627;SDS011;40525;55.926;21.066;2024-03-02T10:04:31;17.30;;;8.70;;
54627;SDS011;40525;55.926;21.066;2024-03-02T10:07:15;20.20;;;10.40;;
54627;SDS011;40525;55.926;21.066;2024-03-02T10:09:47;18.50;;;9.60;;
54627;SDS011;40525;55.926;21.066;2024-03-02T10:12:16;16.10;;;10.50;;
54627;SDS011;40525;55.926;21.066;2024-03-02T10:14:44;20.00;;;9.80;;
54627;SDS011;40525;55.926;21.066;2024-03-02T10:17:12;18.30;;;9.30;;
54627;SDS011;40525;55.926;21.066;2024-03-02T10:19:40;17.70;;;9.50;;
54627;SDS011;40525;55.926;21.066;2024-03-02T10:22:07;24.20;;;11.80;;
54627;SDS011;40525;55.926;21.066;2024-03-02T10:24:42;17.00;;;8.90;;
54627;SDS011;40525;55.926;21.066;2024-03-02T10:27:26;19.10;;;10.10;;
54627;SDS011;40525;55.926;21.066;2024-03-02T10:29:54;21.80;;;10.40;;
54627;SDS011;40525;55.926;21.066;2024-03-02T10:32:22;16.50;;;9.30;;
54627;SDS011;40525;55.926;21.066;2024-03-02T10:34:53;16.20;;;8.90;;
54627;SDS011;40525;55.926;21.066;2024-03-02T10:37:20;21.10;;;9.90;;
54627;SDS011;40525;55.926;21.066;2024-03-02T10:39:48;18.50;;;9.20;;
54627;SDS011;40525;55.926;21.066;2024-03-02T10:42:15;22.80;;;13.20;;
54627;SDS011;40525;55.926;21.066;2024-03-02T10:44:44;23.80;;;13.60;;
54627;SDS011;40525;55.926;21.066;2024-03-02T10:47:12;15.60;;;8.20;;
54627;SDS011;40525;55.926;21.066;2024-03-02T10:49:41;17.80;;;11.20;;
54627;SDS011;40525;55.926;21.066;2024-03-02T10:52:10;18.40;;;9.90;;
54627;SDS011;40525;55.926;21.066;2024-03-02T10:54:37;19.20;;;10.30;;
54627;SDS011;40525;55.926;21.066;2024-03-02T10:57:07;19.10;;;9.20;;
54627;SDS011;40525;55.926;21.066;2024-03-02T10:59:37;16.40;;;9.60;;
54627;SDS011;40525;55.926;21.066;2024-03-02T11:02:19;19.40;;;10.30;;
54627;SDS011;40525;55.926;21.066;2024-03-02T11:04:48;15.20;;;8.30;;
54627;SDS011;40525;55.926;21.066;2024-03-02T11:07:16;15.10;;;7.80;;
54627;SDS011;40525;55.926;21.066;2024-03-02T11:09:57;17.10;;;9.50;;
54627;SDS011;40525;55.926;21.066;2024-03-02T11:12:34;18.50;;;10.00;;
54627;SDS011;40525;55.926;21.066;2024-03-02T11:15:06;21.30;;;9.30;;
54627;SDS011;40525;55.926;21.066;2024-03-02T11:17:39;16.60;;;9.50;;
54627;SDS011;40525;55.926;21.066;2024-03-02T11:20:07;19.70;;;10.20;;
54627;SDS011;40525;55.926;21.066;2024-03-02T11:22:36;15.80;;;9.40;;
54627;SDS011;40525;55.926;21.066;2024-03-02T11:25:06;17.40;;;10.40;;
54627;SDS011;40525;55.926;21.066;2024-03-02T11:33:04;40.10;;;16.70;;
54627;SDS011;40525;55.926;21.066;2024-03-02T11:35:34;24.50;;;12.30;;
54627;SDS011;40525;55.926;21.066;2024-03-02T11:38:02;24.40;;;12.10;;
54627;SDS011;40525;55.926;21.066;2024-03-02T11:40:30;22.80;;;13.00;;
54627;SDS011;40525;55.926;21.066;2024-03-02T11:42:59;23.10;;;12.20;;
54627;SDS011;40525;55.926;21.066;2024-03-02T11:45:27;16.10;;;9.30;;
54627;SDS011;40525;55.926;21.066;2024-03-02T11:47:54;16.10;;;9.30;;
54627;SDS011;40525;55.926;21.066;2024-03-02T11:50:29;19.80;;;10.80;;
54627;SDS011;40525;55.926;21.066;2024-03-02T11:52:57;22.70;;;10.60;;
54627;SDS011;40525;55.926;21.066;2024-03-02T11:55:25;16.30;;;9.40;;
54627;SDS011;40525;55.926;21.066;2024-03-02T11:57:53;19.40;;;10.10;;
54627;SDS011;40525;55.926;21.066;2024-03-02T12:00:20;20.90;;;10.40;;
54627;SDS011;40525;55.926;21.066;2024-03-02T12:02:47;23.40;;;10.40;;
54627;SDS011;40525;55.926;21.066;2024-03-02T12:05:27;25.10;;;10.70;;
54627;SDS011;40525;55.926;21.066;2024-03-02T12:07:56;24.40;;;11.60;;
54627;SDS011;40525;55.926;21.066;2024-03-02T12:10:24;17.80;;;10.90;;
54627;SDS011;40525;55.926;21.066;2024-03-02T12:15:37;17.00;;;8.60;;
54627;SDS011;40525;55.926;21.066;2024-03-02T12:18:04;20.10;;;10.40;;
54627;SDS011;40525;55.926;21.066;2024-03-02T12:20:33;18.40;;;10.10;;
54627;SDS011;40525;55.926;21.066;2024-03-02T12:23:01;21.10;;;12.10;;
54627;SDS011;40525;55.926;21.066;2024-03-02T12:25:31;20.70;;;12.50;;
54627;SDS011;40525;55.926;21.066;2024-03-02T12:28:02;27.30;;;14.00;;
54627;SDS011;40525;55.926;21.066;2024-03-02T12:30:31;27.90;;;14.70;;
54627;SDS011;40525;55.926;21.066;2024-03-02T12:33:02;18.60;;;10.30;;
54627;SDS011;40525;55.926;21.066;2024-03-02T12:35:29;17.60;;;10.20;;
54627;SDS011;40525;55.926;21.066;2024-03-02T12:37:56;41.40;;;18.90;;
54627;SDS011;40525;55.926;21.066;2024-03-02T12:40:23;23.80;;;11.50;;
54627;SDS011;40525;55.926;21.066;2024-03-02T12:42:51;21.90;;;11.00;;
54627;SDS011;40525;55.926;21.066;2024-03-02T12:45:18;21.90;;;10.50;;
54627;SDS011;40525;55.926;21.066;2024-03-02T12:47:51;19.80;;;10.70;;
54627;SDS011;40525;55.926;21.066;2024-03-02T12:50:19;23.10;;;13.10;;
54627;SDS011;40525;55.926;21.066;2024-03-02T12:52:50;29.90;;;13.80;;
54627;SDS011;40525;55.926;21.066;2024-03-02T12:55:20;33.20;;;14.00;;
54627;SDS011;40525;55.926;21.066;2024-03-02T12:57:51;40.70;;;16.20;;
54627;SDS011;40525;55.926;21.066;2024-03-02T13:00:20;29.20;;;12.30;;
54627;SDS011;40525;55.926;21.066;2024-03-02T13:02:49;23.40;;;11.20;;
54627;SDS011;40525;55.926;21.066;2024-03-02T13:05:18;32.70;;;13.70;;
54627;SDS011;40525;55.926;21.066;2024-03-02T13:07:47;20.40;;;11.10;;
54627;SDS011;40525;55.926;21.066;2024-03-02T13:10:16;29.30;;;14.50;;
54627;SDS011;40525;55.926;21.066;2024-03-02T13:12:45;30.30;;;14.10;;
54627;SDS011;40525;55.926;21.066;2024-03-02T13:15:12;27.30;;;12.90;;
54627;SDS011;40525;55.926;21.066;2024-03-02T13:17:44;27.00;;;13.60;;
54627;SDS011;40525;55.926;21.066;2024-03-02T13:20:15;25.90;;;13.20;;
54627;SDS011;40525;55.926;21.066;2024-03-02T13:22:42;21.10;;;10.70;;
54627;SDS011;40525;55.926;21.066;2024-03-02T13:25:10;20.40;;;10.20;;
54627;SDS011;40525;55.926;21.066;2024-03-02T13:27:38;24.60;;;11.30;;
54627;SDS011;40525;55.926;21.066;2024-03-02T13:30:06;23.00;;;12.30;;
54627;SDS011;40525;55.926;21.066;2024-03-02T13:32:36;24.00;;;12.10;;
54627;SDS011;40525;55.926;21.066;2024-03-02T13:35:03;24.70;;;12.10;;
54627;SDS011;40525;55.926;21.066;2024-03-02T13:37:30;26.90;;;14.00;;
54627;SDS011;40525;55.926;21.066;2024-03-02T13:39:57;25.90;;;13.60;;
54627;SDS011;40525;55.926;21.066;2024-03-02T13:42:24;28.30;;;14.00;;
54627;SDS011;40525;55.926;21.066;2024-03-02T13:44:52;19.00;;;11.80;;
54627;SDS011;40525;55.926;21.066;2024-03-02T13:47:19;22.60;;;11.50;;
54627;SDS011;40525;55.926;21.066;2024-03-02T13:49:48;19.20;;;11.00;;
54627;SDS011;40525;55.926;21.066;2024-03-02T13:52:15;19.80;;;10.60;;
54627;SDS011;40525;55.926;21.066;2024-03-02T13:54:47;19.60;;;11.10;;
54627;SDS011;40525;55.926;21.066;2024-03-02T13:57:15;24.00;;;11.50;;
54627;SDS011;40525;55.926;21.066;2024-03-02T13:59:43;19.70;;;10.30;;
54627;SDS011;40525;55.926;21.066;2024-03-02T14:02:12;21.50;;;11.20;;
54627;SDS011;40525;55.926;21.066;2024-03-02T14:04:39;19.50;;;10.60;;
54627;SDS011;40525;55.926;21.066;2024-03-02T14:07:07;20.00;;;11.80;;
54627;SDS011;40525;55.926;21.066;2024-03-02T14:09:35;18.60;;;10.60;;
54627;SDS011;40525;55.926;21.066;2024-03-02T14:12:02;19.60;;;10.50;;
54627;SDS011;40525;55.926;21.066;2024-03-02T14:14:33;22.00;;;10.70;;
54627;SDS011;40525;55.926;21.066;2024-03-02T14:17:00;15.10;;;8.40;;
54627;SDS011;40525;55.926;21.066;2024-03-02T14:19:30;19.60;;;10.90;;
54627;SDS011;40525;55.926;21.066;2024-03-02T14:21:57;18.80;;;10.40;;
54627;SDS011;40525;55.926;21.066;2024-03-02T14:24:25;18.00;;;10.30;;
54627;SDS011;40525;55.926;21.066;2024-03-02T14:26:53;18.50;;;10.70;;
54627;SDS011;40525;55.926;21.066;2024-03-02T14:29:31;21.80;;;11.50;;
54627;SDS011;40525;55.926;21.066;2024-03-02T14:32:03;26.60;;;12.10;;
54627;SDS011;40525;55.926;21.066;2024-03-02T14:34:30;19.50;;;10.70;;
54627;SDS011;40525;55.926;21.066;2024-03-02T14:36:57;22.70;;;11.10;;
54627;SDS011;40525;55.926;21.066;2024-03-02T14:39:25;20.10;;;10.50;;
54627;SDS011;40525;55.926;21.066;2024-03-02T14:41:53;18.00;;;10.20;;